Terminal Aerodrome Forecast
Issued by NWS Duluth, MN

Home | Current Version | Previous Version | Text Only | Print | Product List | Glossary On
Versions: 1 2 3 4 5 6 7 8 9 10 11 12 13 14 15 16 17 18 19 20 21 22 23 24
000
FTUS43 KDLH 252100 AAA
TAFINL
TAF AMD
KINL 252106Z 2521/2618 20008KT P6SM OVC017
      TEMPO 2521/2524 SCT015 OVC040
     FM260000 20004KT P6SM SCT025 BKN040
     FM260300 21007KT P6SM BKN025 OVC040
     FM260500 21009KT 3SM -SN BKN015 BKN035
     FM261000 22009KT 3SM -SN OVC012
     FM261400 27010KT P6SM VCSH OVC015=

USA.gov is the U.S. government's official web portal to all federal, state and local government web resources and services.